Time;durP1;ratioP1;P1;durP2;ratioP2;P2;SDS_P1;SDS_P2;PMS_P1;PMS_P2;Temp;Humidity;BMP_temperature;BMP_pressure;BME280_temperature;BME280_humidity;BME280_pressure;Samples;Min_cycle;Max_cycle;Signal;HPM_P1;HPM_P2
2023/06/15 00:01:47;;;;;;;9.55;3.60;;;12.60;99.90;;;;;;5089524;28;20081;-60
2023/06/15 00:04:12;;;;;;;;;;;12.50;99.90;;;;;;5077510;28;20059;-61
2023/06/15 00:06:38;;;;;;;5.05;3.58;;;12.50;99.90;;;;;;5088285;28;19920;-60
2023/06/15 00:09:04;;;;;;;;;;;12.50;99.90;;;;;;5077931;28;20354;-61
2023/06/15 00:11:29;;;;;;;9.57;3.20;;;12.50;99.90;;;;;;5086462;28;19920;-62
2023/06/15 00:13:55;;;;;;;;;;;12.40;99.90;;;;;;5082849;28;20032;-55
2023/06/15 00:16:21;;;;;;;6.18;3.47;;;12.40;99.90;;;;;;5089363;28;20010;-60
2023/06/15 00:18:54;;;;;;;;;;;12.40;99.90;;;;;;5070593;28;20048;-59
2023/06/15 00:21:22;;;;;;;4.43;3.13;;;12.40;99.90;;;;;;5078306;28;19928;-60
2023/06/15 00:23:48;;;;;;;9.38;4.10;;;12.40;99.90;;;;;;5068637;28;20103;-59
2023/06/15 00:26:14;;;;;;;;;;;12.40;99.90;;;;;;5063851;28;20036;-60
2023/06/15 00:28:40;;;;;;;6.32;3.45;;;12.40;99.90;;;;;;5069172;28;20010;-60
2023/06/15 00:31:05;;;;;;;;;;;12.30;99.90;;;;;;5074506;28;20028;-59
2023/06/15 00:33:31;;;;;;;6.65;3.22;;;12.30;99.90;;;;;;5072661;28;19973;-58
2023/06/15 00:35:58;;;;;;;;;;;12.30;99.90;;;;;;5076145;28;20040;-60
2023/06/15 00:38:23;;;;;;;5.45;3.28;;;12.30;99.90;;;;;;5080478;28;20042;-62
2023/06/15 00:40:49;;;;;;;;;;;12.20;99.90;;;;;;5070802;28;20139;-61
2023/06/15 00:43:15;;;;;;;5.20;3.40;;;12.30;99.90;;;;;;5065108;28;19922;-60
2023/06/15 00:45:40;;;;;;;7.30;3.78;;;12.20;99.90;;;;;;5069829;28;20501;-63
2023/06/15 00:48:06;;;;;;;;;;;12.20;99.90;;;;;;5061207;28;20043;-60
2023/06/15 00:50:32;;;;;;;6.72;3.78;;;12.20;99.90;;;;;;5069519;28;19916;-62
2023/06/15 00:53:03;;;;;;;5.18;3.08;;;12.10;99.90;;;;;;5066631;28;20048;-61
2023/06/15 00:55:33;;;;;;;9.07;3.60;;;12.10;99.90;;;;;;5067399;28;20055;-60
2023/06/15 00:58:00;;;;;;;6.57;3.45;;;12.10;99.90;;;;;;5065448;28;20511;-61
2023/06/15 01:00:26;;;;;;;6.13;3.78;;;12.00;99.90;;;;;;5073514;28;20040;-62
2023/06/15 01:02:56;;;;;;;9.98;4.18;;;12.00;99.90;;;;;;5082009;28;20456;-61
2023/06/15 01:05:23;;;;;;;9.57;3.70;;;12.10;99.90;;;;;;5070748;28;20036;-62
2023/06/15 01:07:51;;;;;;;5.97;3.58;;;12.00;99.90;;;;;;5079192;28;20736;-60
2023/06/15 01:10:20;;;;;;;9.52;3.70;;;12.00;99.90;;;;;;5073867;28;20039;-62
2023/06/15 01:12:50;;;;;;;7.10;4.38;;;12.00;99.90;;;;;;5073130;28;20044;-61
2023/06/15 01:15:16;;;;;;;4.88;3.20;;;12.00;99.90;;;;;;5063716;28;20037;-62
2023/06/15 01:17:46;;;;;;;;;;;12.00;99.90;;;;;;5084096;28;20412;-61
2023/06/15 01:20:30;;;;;;;6.32;3.67;;;12.00;99.90;;;;;;5075691;28;19923;-59
2023/06/15 01:22:59;;;;;;;8.30;3.70;;;11.90;99.90;;;;;;5072371;28;20040;-61
2023/06/15 01:25:33;;;;;;;13.32;4.47;;;11.90;99.90;;;;;;5075184;28;20040;-62
2023/06/15 01:28:02;;;;;;;4.78;3.42;;;11.90;99.90;;;;;;5069674;28;20044;-61
2023/06/15 01:30:31;;;;;;;9.25;3.60;;;11.90;99.90;;;;;;5070776;28;20044;-61
2023/06/15 01:32:58;;;;;;;7.95;3.92;;;11.90;99.90;;;;;;5077364;28;20039;-63
2023/06/15 01:35:23;;;;;;;8.93;3.70;;;11.80;99.90;;;;;;5068696;28;20641;-63
2023/06/15 01:37:49;;;;;;;;;;;11.70;99.90;;;;;;5074666;28;20048;-63
2023/06/15 01:40:16;;;;;;;6.97;3.90;;;11.80;99.90;;;;;;5071684;28;19920;-62
2023/06/15 01:42:43;;;;;;;7.13;4.13;;;11.70;99.90;;;;;;5062399;28;20048;-62
2023/06/15 01:45:10;;;;;;;7.50;4.00;;;11.70;99.90;;;;;;5068850;28;20043;-60
2023/06/15 01:47:37;;;;;;;12.18;4.05;;;11.70;99.90;;;;;;5067425;28;20058;-62
2023/06/15 01:50:04;;;;;;;8.73;3.72;;;11.70;99.90;;;;;;5063242;28;20103;-65
2023/06/15 01:52:30;;;;;;;6.95;4.03;;;11.70;99.90;;;;;;5069114;28;20063;-63
2023/06/15 01:54:55;;;;;;;;;;;11.60;99.90;;;;;;5068007;28;20063;-58
2023/06/15 01:57:22;;;;;;;6.38;3.50;;;11.60;99.90;;;;;;5066976;28;20453;-64
2023/06/15 01:59:47;;;;;;;6.78;3.90;;;11.60;99.90;;;;;;5068983;28;20051;-61
2023/06/15 02:02:13;;;;;;;;;;;11.60;99.90;;;;;;5078012;28;20036;-60
2023/06/15 02:04:38;;;;;;;9.57;3.75;;;11.60;99.90;;;;;;5073325;28;19985;-61
2023/06/15 02:07:04;;;;;;;;;;;11.60;99.90;;;;;;5079915;28;20094;-62
2023/06/15 02:09:30;;;;;;;8.40;4.40;;;11.60;99.90;;;;;;5074542;28;20020;-61
2023/06/15 02:11:57;;;;;;;13.50;4.30;;;11.50;99.90;;;;;;5064901;28;20063;-60
2023/06/15 02:14:23;;;;;;;5.50;3.53;;;11.50;99.90;;;;;;5067093;28;20569;-63
2023/06/15 02:16:49;;;;;;;7.05;3.83;;;11.50;99.90;;;;;;5078744;28;20056;-63
2023/06/15 02:19:20;;;;;;;;;;;11.50;99.90;;;;;;5076745;28;20050;-59
2023/06/15 02:21:49;;;;;;;8.00;3.53;;;11.50;99.90;;;;;;5071351;28;19920;-61
2023/06/15 02:24:16;;;;;;;10.02;3.80;;;11.50;99.90;;;;;;5075949;28;20044;-62
2023/06/15 02:26:42;;;;;;;8.43;3.70;;;11.50;99.90;;;;;;5068154;28;20110;-62
2023/06/15 02:29:08;;;;;;;;;;;11.50;99.90;;;;;;5070101;28;20032;-63
2023/06/15 02:31:33;;;;;;;9.95;4.35;;;11.40;99.90;;;;;;5072378;28;19978;-61
2023/06/15 02:33:59;;;;;;;;;;;11.40;99.90;;;;;;5064930;28;20042;-64
2023/06/15 02:36:25;;;;;;;8.90;4.00;;;11.40;99.90;;;;;;5078113;28;19970;-62
2023/06/15 02:38:51;;;;;;;7.15;3.85;;;11.30;99.90;;;;;;5081343;28;20072;-62
2023/06/15 02:41:16;;;;;;;;;;;11.30;99.90;;;;;;5071501;28;20103;-61
2023/06/15 02:43:42;;;;;;;5.75;3.53;;;11.30;99.90;;;;;;5059771;28;20960;-62
2023/06/15 02:46:08;;;;;;;;;;;11.30;99.90;;;;;;5073344;28;20051;-61
2023/06/15 02:48:34;;;;;;;7.00;3.97;;;11.20;99.90;;;;;;5079641;28;19921;-61
2023/06/15 02:51:00;;;;;;;8.80;4.68;;;11.10;99.90;;;;;;5075375;28;20044;-62
2023/06/15 02:53:25;;;;;;;;;;;11.10;99.90;;;;;;5078575;28;20131;-62
2023/06/15 02:55:52;;;;;;;8.52;3.85;;;11.10;99.90;;;;;;5070684;28;20026;-58
2023/06/15 02:58:20;;;;;;;9.80;4.50;;;11.10;99.90;;;;;;5064006;28;20040;-58
2023/06/15 03:00:50;;;;;;;6.78;3.90;;;11.10;99.90;;;;;;5075600;28;20078;-60
2023/06/15 03:03:27;;;;;;;12.10;4.82;;;11.10;99.90;;;;;;5070659;28;20107;-61
2023/06/15 03:05:54;;;;;;;9.15;4.45;;;11.10;99.90;;;;;;5062676;28;20535;-61
2023/06/15 03:08:20;;;;;;;9.80;4.00;;;11.10;99.90;;;;;;5074560;28;20062;-60
2023/06/15 03:10:46;;;;;;;6.38;3.65;;;11.10;99.90;;;;;;5076395;28;20047;-61
2023/06/15 03:13:12;;;;;;;;;;;11.10;99.90;;;;;;5077154;28;20035;-59
2023/06/15 03:15:38;;;;;;;7.88;4.20;;;11.00;99.90;;;;;;5063341;28;19981;-59
2023/06/15 03:18:12;;;;;;;8.13;3.83;;;11.10;99.90;;;;;;5062462;28;20085;-62
2023/06/15 03:20:43;;;;;;;6.18;3.55;;;11.00;99.90;;;;;;5069609;28;20036;-62
2023/06/15 03:23:13;;;;;;;7.50;4.13;;;11.00;99.90;;;;;;5064132;28;20072;-62
2023/06/15 03:25:38;;;;;;;9.43;4.78;;;11.00;99.90;;;;;;5056067;28;20141;-61
2023/06/15 03:28:04;;;;;;;;;;;10.90;99.90;;;;;;5046608;28;20131;-63
2023/06/15 03:30:30;;;;;;;5.85;3.72;;;11.00;99.90;;;;;;5055921;28;19927;-61
2023/06/15 03:32:55;;;;;;;6.47;4.50;;;10.90;99.90;;;;;;5051497;28;20086;-62
2023/06/15 03:35:21;;;;;;;;;;;10.90;99.90;;;;;;5056714;28;20036;-62
2023/06/15 03:37:47;;;;;;;6.13;3.67;;;10.90;99.90;;;;;;5049148;28;19920;-63
2023/06/15 03:40:13;;;;;;;;;;;11.00;99.90;;;;;;5060234;28;20068;-63
2023/06/15 03:42:39;;;;;;;5.40;3.55;;;11.20;99.90;;;;;;5055907;28;20239;-62
2023/06/15 03:45:05;;;;;;;;;;;11.20;99.90;;;;;;5052689;28;20560;-60
2023/06/15 03:47:32;;;;;;;7.75;4.30;;;11.20;99.90;;;;;;5058840;28;19928;-64
2023/06/15 03:49:58;;;;;;;5.45;3.90;;;11.30;99.90;;;;;;5054638;28;20044;-63
2023/06/15 03:52:25;;;;;;;;;;;11.20;99.90;;;;;;5062753;28;20041;-62
2023/06/15 03:54:50;;;;;;;10.77;4.32;;;11.30;99.90;;;;;;5057446;28;19925;-62
2023/06/15 03:57:16;;;;;;;;;;;11.20;99.90;;;;;;5060191;28;20050;-62
2023/06/15 03:59:42;;;;;;;6.07;4.15;;;11.30;99.90;;;;;;5062086;28;19920;-62
2023/06/15 04:02:07;;;;;;;;;;;11.40;99.90;;;;;;5065220;28;20155;-63
2023/06/15 04:04:33;;;;;;;6.50;4.18;;;11.40;99.90;;;;;;5062383;28;19920;-62
2023/06/15 04:06:59;;;;;;;;;;;11.50;99.90;;;;;;5062251;28;20094;-61
2023/06/15 04:09:24;;;;;;;6.07;3.67;;;11.50;99.90;;;;;;5061108;28;19978;-62
2023/06/15 04:11:50;;;;;;;;;;;11.60;99.90;;;;;;5069661;28;20046;-63
2023/06/15 04:14:18;;;;;;;6.57;3.75;;;11.60;99.90;;;;;;5077861;28;19944;-61
2023/06/15 04:16:43;;;;;;;8.75;3.85;;;11.60;99.90;;;;;;5067657;28;20055;-61
2023/06/15 04:19:09;;;;;;;;;;;11.70;99.90;;;;;;5060123;28;20044;-62
2023/06/15 04:21:36;;;;;;;8.68;3.90;;;11.90;99.90;;;;;;5064982;28;19920;-62
2023/06/15 04:24:03;;;;;;;6.95;3.95;;;12.00;99.90;;;;;;5066117;28;20051;-62
2023/06/15 04:26:29;;;;;;;6.90;4.55;;;12.10;99.90;;;;;;5074818;28;20063;-63
2023/06/15 04:28:57;;;;;;;;;;;12.10;99.90;;;;;;5066486;28;20585;-63
2023/06/15 04:31:24;;;;;;;4.53;3.28;;;12.10;99.90;;;;;;5074555;28;19916;-63
2023/06/15 04:33:52;;;;;;;12.20;3.55;;;12.50;99.90;;;;;;5063297;28;20044;-63
2023/06/15 04:36:18;;;;;;;5.55;3.80;;;13.10;99.90;;;;;;5074809;28;20055;-64
2023/06/15 04:38:48;;;;;;;9.45;4.60;;;13.30;99.90;;;;;;5068136;28;20032;-63
2023/06/15 04:41:14;;;;;;;10.32;3.72;;;13.20;99.90;;;;;;5074705;28;20039;-63
2023/06/15 04:43:40;;;;;;;10.60;4.40;;;13.10;99.90;;;;;;5063201;28;20033;-61
2023/06/15 04:46:06;;;;;;;;;;;13.00;99.90;;;;;;5070968;28;20036;-63
2023/06/15 04:48:32;;;;;;;10.43;4.20;;;13.00;99.90;;;;;;5064240;28;19920;-64
2023/06/15 04:50:59;;;;;;;8.15;4.10;;;13.00;99.90;;;;;;5072563;28;20404;-63
2023/06/15 04:53:25;;;;;;;6.53;3.95;;;12.90;99.90;;;;;;5076632;28;20047;-63
2023/06/15 04:55:51;;;;;;;;;;;13.00;99.90;;;;;;5071517;28;20047;-62
2023/06/15 04:58:17;;;;;;;10.70;3.88;;;13.30;99.90;;;;;;5067940;28;19920;-62
2023/06/15 05:00:43;;;;;;;10.07;4.20;;;13.50;99.90;;;;;;5075048;28;20040;-62
2023/06/15 05:03:10;;;;;;;;;;;13.50;99.90;;;;;;5064023;28;20218;-62
2023/06/15 05:05:35;;;;;;;5.63;4.05;;;13.40;99.90;;;;;;5068525;28;19923;-62
2023/06/15 05:08:01;;;;;;;;;;;13.40;99.90;;;;;;5069113;28;20032;-62
2023/06/15 05:10:26;;;;;;;10.88;3.83;;;13.40;99.90;;;;;;5069956;28;20383;-62
2023/06/15 05:12:52;;;;;;;;;;;13.40;99.90;;;;;;5064501;28;20044;-62
2023/06/15 05:15:18;;;;;;;7.63;3.60;;;13.50;99.90;;;;;;5068841;28;20652;-63
2023/06/15 05:17:43;;;;;;;;;;;13.50;99.90;;;;;;5073956;28;20542;-63
2023/06/15 05:20:10;;;;;;;9.93;3.90;;;13.50;99.90;;;;;;5068944;28;19920;-63
2023/06/15 05:22:35;;;;;;;8.52;4.00;;;13.60;99.90;;;;;;5063825;28;20052;-63
2023/06/15 05:25:02;;;;;;;;;;;13.70;99.90;;;;;;5069638;28;20094;-63
2023/06/15 05:27:28;;;;;;;11.73;4.17;;;14.00;99.90;;;;;;5065163;28;19924;-62
2023/06/15 05:29:55;;;;;;;10.10;3.80;;;14.20;99.90;;;;;;5071877;28;20035;-62
2023/06/15 05:32:20;;;;;;;9.95;4.20;;;14.20;99.90;;;;;;5070592;28;20036;-62
2023/06/15 05:34:46;;;;;;;;;;;14.30;99.90;;;;;;5063717;28;20829;-63
2023/06/15 05:37:11;;;;;;;5.68;3.65;;;14.40;99.90;;;;;;5065104;28;20494;-65
2023/06/15 05:39:37;;;;;;;7.13;3.97;;;14.50;99.90;;;;;;5071170;28;20071;-63
2023/06/15 05:42:03;;;;;;;;;;;14.70;99.90;;;;;;5068609;28;20036;-63
2023/06/15 05:44:28;;;;;;;5.65;3.55;;;15.00;99.90;;;;;;5068712;28;19920;-62
2023/06/15 05:46:54;;;;;;;5.25;3.28;;;15.40;99.90;;;;;;5067083;28;20071;-62
2023/06/15 05:49:19;;;;;;;;;;;15.60;99.90;;;;;;5074010;28;20453;-63
2023/06/15 05:51:45;;;;;;;7.10;3.58;;;15.60;99.90;;;;;;5071300;28;19924;-63
2023/06/15 05:54:11;;;;;;;;;;;15.60;99.90;;;;;;5086759;28;20507;-64
2023/06/15 05:56:36;;;;;;;8.32;3.40;;;15.70;99.90;;;;;;5064035;28;19920;-61
2023/06/15 05:59:02;;;;;;;11.18;3.85;;;15.80;99.90;;;;;;5063826;28;20877;-62
2023/06/15 06:01:28;;;;;;;7.47;3.90;;;16.00;99.90;;;;;;5075720;28;20107;-64
2023/06/15 06:03:53;;;;;;;;;;;16.20;99.90;;;;;;5075721;28;20051;-64
2023/06/15 06:06:19;;;;;;;7.40;3.78;;;16.40;99.90;;;;;;5068629;28;19925;-64
2023/06/15 06:08:45;;;;;;;;;;;16.50;99.90;;;;;;5070558;28;20041;-60
2023/06/15 06:11:11;;;;;;;7.70;3.47;;;16.50;99.90;;;;;;5069640;28;19977;-64
2023/06/15 06:13:37;;;;;;;7.13;3.78;;;16.80;99.90;;;;;;5056821;28;20048;-62
2023/06/15 06:16:02;;;;;;;;;;;17.20;99.90;;;;;;5073609;28;20036;-63
2023/06/15 06:18:28;;;;;;;6.70;3.42;;;18.00;98.80;;;;;;5058475;28;19920;-61
2023/06/15 06:20:54;;;;;;;8.00;3.45;;;19.80;96.00;;;;;;5070243;28;20316;-61
2023/06/15 06:23:19;;;;;;;;;;;20.50;92.60;;;;;;5059227;28;20557;-61
2023/06/15 06:25:45;;;;;;;5.43;3.97;;;20.20;91.70;;;;;;5070731;28;19920;-61
2023/06/15 06:28:11;;;;;;;8.93;4.32;;;19.80;92.40;;;;;;5079592;28;20777;-60
2023/06/15 06:30:38;;;;;;;7.97;3.80;;;19.40;91.90;;;;;;5069161;28;20039;-61
2023/06/15 06:33:04;;;;;;;9.80;3.50;;;19.10;94.50;;;;;;5089252;28;20067;-60
2023/06/15 06:35:30;;;;;;;15.88;3.78;;;19.20;93.80;;;;;;5072990;28;20108;-60
2023/06/15 06:37:55;;;;;;;;;;;19.80;92.90;;;;;;5063442;28;20500;-60
2023/06/15 06:40:21;;;;;;;7.65;4.05;;;20.00;91.40;;;;;;5067070;28;19919;-61
2023/06/15 06:42:46;;;;;;;16.10;3.90;;;19.90;92.50;;;;;;5084178;28;20076;-63
2023/06/15 06:45:12;;;;;;;12.85;3.30;;;19.70;89.00;;;;;;5072417;28;20039;-61
2023/06/15 06:47:38;;;;;;;6.93;3.20;;;19.50;90.50;;;;;;5056543;28;20053;-60
2023/06/15 06:50:07;;;;;;;12.00;3.15;;;19.30;89.10;;;;;;5066617;28;20109;-60
2023/06/15 06:52:33;;;;;;;7.47;2.60;;;19.40;87.40;;;;;;5066062;28;20040;-60
2023/06/15 06:54:58;;;;;;;5.20;3.33;;;20.70;88.00;;;;;;5069524;28;20400;-57
2023/06/15 06:57:24;;;;;;;10.65;3.22;;;21.50;84.80;;;;;;5062891;28;20044;-60
2023/06/15 06:59:50;;;;;;;7.68;2.90;;;21.80;81.00;;;;;;5068888;28;20044;-60
2023/06/15 07:02:16;;;;;;;4.10;3.05;;;22.00;79.60;;;;;;5069938;28;20052;-59
2023/06/15 07:04:41;;;;;;;9.90;2.95;;;21.40;77.90;;;;;;5066682;28;20071;-61
2023/06/15 07:07:07;;;;;;;7.57;3.63;;;20.90;83.10;;;;;;5076381;28;20249;-59
2023/06/15 07:09:32;;;;;;;10.65;3.15;;;20.60;81.90;;;;;;5071049;28;20110;-61
2023/06/15 07:11:58;;;;;;;5.72;3.15;;;20.30;86.70;;;;;;5074898;28;20138;-59
2023/06/15 07:14:23;;;;;;;6.78;3.53;;;20.20;85.00;;;;;;5063569;28;20121;-60
2023/06/15 07:16:49;;;;;;;7.65;3.17;;;20.00;86.50;;;;;;5063345;28;20045;-58
2023/06/15 07:19:15;;;;;;;6.97;3.35;;;19.90;86.20;;;;;;5059359;28;20032;-61
2023/06/15 07:21:40;;;;;;;5.55;3.28;;;19.90;82.50;;;;;;5077134;28;20434;-61
2023/06/15 07:24:06;;;;;;;10.52;3.30;;;20.10;81.40;;;;;;5067028;28;20039;-58
2023/06/15 07:26:32;;;;;;;7.28;3.35;;;21.00;79.60;;;;;;5061766;28;20055;-60
2023/06/15 07:28:57;;;;;;;9.02;3.03;;;21.60;77.90;;;;;;5071907;28;20159;-61
2023/06/15 07:31:23;;;;;;;5.72;3.30;;;22.40;78.00;;;;;;5079401;28;20041;-61
2023/06/15 07:33:49;;;;;;;6.88;3.08;;;22.60;72.90;;;;;;5069371;28;20043;-61
2023/06/15 07:36:15;;;;;;;7.68;2.92;;;22.30;75.30;;;;;;5071001;28;20032;-62
2023/06/15 07:38:41;;;;;;;7.00;2.97;;;21.90;75.40;;;;;;5074269;28;20063;-61
2023/06/15 07:41:07;;;;;;;8.68;2.88;;;21.50;74.80;;;;;;5083702;28;20134;-58
2023/06/15 07:43:32;;;;;;;11.13;2.85;;;21.10;76.20;;;;;;5077669;28;20105;-60
2023/06/15 07:45:58;;;;;;;8.35;3.15;;;20.70;77.20;;;;;;5073508;28;20043;-60
2023/06/15 07:48:24;;;;;;;6.35;2.88;;;20.40;79.20;;;;;;5064178;28;20047;-58
2023/06/15 07:50:49;;;;;;;11.70;2.70;;;20.40;78.30;;;;;;5080958;28;20043;-61
2023/06/15 07:53:15;;;;;;;6.82;3.20;;;20.40;79.20;;;;;;5076735;28;20024;-60
2023/06/15 07:55:41;;;;;;;6.53;3.17;;;20.30;79.10;;;;;;5073739;28;20126;-60
2023/06/15 07:58:07;;;;;;;11.35;3.05;;;20.40;79.80;;;;;;5056619;28;20146;-59
2023/06/15 08:00:33;;;;;;;8.40;2.88;;;20.50;75.90;;;;;;5075838;28;20463;-63
2023/06/15 08:02:58;;;;;;;6.53;2.42;;;20.50;78.20;;;;;;5069445;28;20053;-61
2023/06/15 08:05:24;;;;;;;4.55;2.80;;;20.60;76.70;;;;;;5074912;28;20040;-61
2023/06/15 08:07:49;;;;;;;6.03;2.95;;;20.60;77.60;;;;;;5065507;28;20105;-59
2023/06/15 08:10:17;;;;;;;12.15;3.13;;;21.50;77.60;;;;;;5076479;28;20036;-60
2023/06/15 08:12:42;;;;;;;7.25;2.90;;;22.70;72.60;;;;;;5081590;28;20570;-60
2023/06/15 08:15:08;;;;;;;9.48;3.38;;;22.90;70.80;;;;;;5072497;28;20040;-61
2023/06/15 08:17:34;;;;;;;8.27;3.38;;;22.60;69.80;;;;;;5067269;28;20094;-63
2023/06/15 08:20:01;;;;;;;71.30;5.70;;;22.40;69.90;;;;;;5055680;28;20039;-62
2023/06/15 08:22:27;;;;;;;4.25;2.88;;;22.00;71.70;;;;;;5069002;28;20115;-61
2023/06/15 08:24:53;;;;;;;6.45;3.30;;;21.70;73.60;;;;;;5072000;28;20064;-62
2023/06/15 08:27:20;;;;;;;7.20;2.90;;;21.40;74.70;;;;;;5069316;28;20040;-61
2023/06/15 08:29:48;;;;;;;5.00;2.92;;;21.40;73.90;;;;;;5067253;28;20036;-61
2023/06/15 08:32:14;;;;;;;9.25;2.90;;;21.60;76.10;;;;;;5070312;28;20040;-60
2023/06/15 08:34:43;;;;;;;7.47;3.72;;;22.00;72.50;;;;;;5082313;28;20089;-60
2023/06/15 08:37:11;;;;;;;7.35;3.20;;;22.70;74.00;;;;;;5091132;28;20083;-61
2023/06/15 08:39:38;;;;;;;8.43;3.03;;;23.00;71.50;;;;;;5084097;28;20075;-64
2023/06/15 08:42:04;;;;;;;9.07;3.63;;;23.00;69.20;;;;;;5077246;28;20697;-61
2023/06/15 08:44:34;;;;;;;9.02;3.00;;;22.90;69.30;;;;;;5077663;28;20119;-62
2023/06/15 08:47:02;;;;;;;8.93;3.47;;;23.30;70.20;;;;;;5079985;28;20491;-60
2023/06/15 08:49:30;;;;;;;8.13;3.13;;;24.10;66.10;;;;;;5073123;28;20037;-59
2023/06/15 08:52:00;;;;;;;8.80;3.63;;;24.70;67.40;;;;;;5075818;28;20058;-59
2023/06/15 08:54:33;;;;;;;8.27;3.03;;;24.10;69.10;;;;;;5065191;28;20040;-60
2023/06/15 08:56:58;;;;;;;10.50;3.55;;;23.30;68.70;;;;;;5072794;28;20075;-59
2023/06/15 08:59:25;;;;;;;9.98;3.20;;;22.80;67.20;;;;;;5090194;28;20086;-60
2023/06/15 09:01:54;;;;;;;10.00;3.30;;;22.40;71.10;;;;;;5091176;28;20050;-59
2023/06/15 09:04:20;;;;;;;10.27;3.40;;;22.10;73.10;;;;;;5068634;28;20036;-59
2023/06/15 09:06:46;;;;;;;8.20;3.15;;;21.90;72.50;;;;;;5074440;28;20722;-59
2023/06/15 09:09:12;;;;;;;10.55;3.40;;;21.50;74.50;;;;;;5079309;28;20114;-58
2023/06/15 09:11:40;;;;;;;7.60;3.35;;;21.60;75.60;;;;;;5077465;28;20028;-60
2023/06/15 09:14:10;;;;;;;5.55;3.20;;;21.70;73.50;;;;;;5068811;28;20078;-60
2023/06/15 09:16:38;;;;;;;7.45;3.35;;;21.70;73.10;;;;;;5066798;28;20064;-59
2023/06/15 09:19:11;;;;;;;16.65;3.35;;;21.60;72.10;;;;;;5061226;28;20471;-59
2023/06/15 09:21:44;;;;;;;11.07;2.90;;;21.30;74.20;;;;;;5077123;28;20615;-60
2023/06/15 09:24:09;;;;;;;9.25;3.05;;;21.10;75.30;;;;;;5075910;28;20173;-59
2023/06/15 09:26:39;;;;;;;6.43;3.70;;;21.10;77.10;;;;;;5073947;28;20570;-58
2023/06/15 09:29:10;;;;;;;8.68;3.10;;;21.00;75.20;;;;;;5066226;28;20047;-61
2023/06/15 09:31:36;;;;;;;10.70;3.00;;;20.80;78.80;;;;;;5065810;28;20043;-61
2023/06/15 09:34:04;;;;;;;7.55;3.50;;;20.80;78.70;;;;;;5065869;28;20063;-59
2023/06/15 09:36:40;;;;;;;7.53;3.50;;;20.50;76.00;;;;;;5074544;28;20518;-59
2023/06/15 09:39:09;;;;;;;4.75;3.30;;;20.90;77.30;;;;;;5067965;28;20032;-60
2023/06/15 09:41:35;;;;;;;6.30;3.13;;;21.10;72.60;;;;;;5072982;28;20103;-60
2023/06/15 09:44:04;;;;;;;8.60;3.50;;;21.10;72.80;;;;;;5062050;28;20028;-60
2023/06/15 09:46:30;;;;;;;7.70;3.42;;;21.20;73.10;;;;;;5074096;28;20074;-60
2023/06/15 09:48:55;;;;;;;6.45;3.17;;;21.10;74.40;;;;;;5066929;28;20075;-59
2023/06/15 09:51:27;;;;;;;7.82;3.47;;;20.80;75.00;;;;;;5082470;28;20032;-57
2023/06/15 09:53:54;;;;;;;9.75;3.33;;;20.50;76.80;;;;;;5074098;28;20047;-60
2023/06/15 09:56:21;;;;;;;7.55;3.30;;;20.40;76.80;;;;;;5061977;28;20044;-58
2023/06/15 09:58:48;;;;;;;8.05;3.42;;;20.80;78.40;;;;;;5069142;28;20044;-58
2023/06/15 10:01:17;;;;;;;7.25;3.10;;;21.10;76.80;;;;;;5071524;28;20052;-60
2023/06/15 10:03:44;;;;;;;8.15;3.22;;;21.10;76.50;;;;;;5067900;28;20044;-58
2023/06/15 10:06:16;;;;;;;6.88;3.15;;;21.10;77.70;;;;;;5082663;28;20044;-60
2023/06/15 10:08:44;;;;;;;4.13;3.33;;;20.50;77.90;;;;;;5089316;28;20097;-64
2023/06/15 10:11:11;;;;;;;7.43;4.07;;;20.20;77.20;;;;;;5070347;28;20040;-63
2023/06/15 10:13:48;;;;;;;7.57;3.95;;;20.00;81.20;;;;;;5068095;28;20072;-63
2023/06/15 10:16:15;;;;;;;6.68;2.95;;;19.80;79.70;;;;;;5076781;28;20396;-65
2023/06/15 10:18:44;;;;;;;7.20;3.10;;;19.80;79.50;;;;;;5071110;28;20649;-62
2023/06/15 10:21:13;;;;;;;7.22;3.38;;;19.90;79.50;;;;;;5068021;28;20079;-62
2023/06/15 10:23:41;;;;;;;4.47;3.17;;;20.00;79.20;;;;;;5059809;28;20051;-61
2023/06/15 10:26:09;;;;;;;12.25;3.13;;;20.40;81.10;;;;;;5075371;28;20048;-64
2023/06/15 10:28:44;;;;;;;9.15;3.50;;;20.70;79.40;;;;;;5088459;28;20039;-61
2023/06/15 10:31:21;;;;;;;6.07;3.47;;;20.60;78.20;;;;;;5077983;28;20114;-62
2023/06/15 10:33:56;;;;;;;8.73;3.30;;;20.80;77.60;;;;;;5065036;28;20044;-62
2023/06/15 10:37:24;;;;;;;9.48;4.20;;;21.00;78.10;;;;;;5071950;28;20039;-61
2023/06/15 10:39:51;;;;;;;7.88;3.47;;;21.10;75.20;;;;;;5040813;28;20116;-62
2023/06/15 10:42:17;;;;;;;8.05;3.72;;;21.20;73.90;;;;;;5070890;28;20452;-60
2023/06/15 10:44:43;;;;;;;7.85;3.40;;;21.00;76.40;;;;;;5068411;28;20082;-59
2023/06/15 10:47:12;;;;;;;6.55;3.25;;;20.90;76.30;;;;;;5073544;28;20048;-61
2023/06/15 10:49:58;;;;;;;10.32;3.30;;;20.90;74.00;;;;;;5063650;28;20040;-62
2023/06/15 10:52:33;;;;;;;6.25;3.47;;;20.90;71.90;;;;;;5079988;28;20048;-61
2023/06/15 10:54:59;;;;;;;9.98;2.80;;;20.90;72.40;;;;;;5067033;28;20826;-61
2023/06/15 10:57:29;;;;;;;8.90;3.08;;;21.20;70.80;;;;;;5065615;28;20036;-61
2023/06/15 10:59:56;;;;;;;9.00;3.90;;;21.40;71.90;;;;;;5068237;28;20129;-62
2023/06/15 11:02:28;;;;;;;18.75;4.13;;;21.40;77.40;;;;;;5070705;28;20036;-62
2023/06/15 11:04:59;;;;;;;9.93;3.13;;;21.10;73.30;;;;;;5063971;28;20908;-62
2023/06/15 11:07:30;;;;;;;10.60;3.45;;;21.00;72.70;;;;;;5071448;28;20052;-62
2023/06/15 11:09:56;;;;;;;6.55;3.13;;;21.00;74.20;;;;;;5073444;28;20036;-61
2023/06/15 11:12:39;;;;;;;7.38;3.55;;;21.20;73.50;;;;;;5073476;28;20040;-62
2023/06/15 11:15:07;;;;;;;8.77;3.20;;;21.30;71.30;;;;;;5061587;28;20040;-62
2023/06/15 11:17:53;;;;;;;12.20;3.42;;;21.20;73.50;;;;;;5062184;28;20052;-62
2023/06/15 11:20:44;;;;;;;7.10;3.30;;;21.00;71.70;;;;;;5072549;28;20089;-60
2023/06/15 11:23:16;;;;;;;4.32;2.83;;;20.90;76.10;;;;;;5062469;28;20045;-62
2023/06/15 11:25:50;;;;;;;7.60;3.22;;;20.80;76.40;;;;;;5072838;28;20039;-62
2023/06/15 11:28:30;;;;;;;5.65;3.13;;;20.50;75.10;;;;;;5064512;28;20500;-62
2023/06/15 11:31:01;;;;;;;4.85;2.95;;;20.40;73.10;;;;;;5069784;28;20040;-61
2023/06/15 11:33:32;;;;;;;5.65;3.08;;;20.60;74.40;;;;;;5062578;28;20516;-60
2023/06/15 11:36:06;;;;;;;8.50;2.92;;;20.90;74.20;;;;;;5068815;28;20051;-62
2023/06/15 11:38:33;;;;;;;7.35;3.10;;;21.20;71.40;;;;;;5062614;28;20109;-62
2023/06/15 11:41:00;;;;;;;14.52;3.10;;;21.40;74.10;;;;;;5075410;28;20539;-59
2023/06/15 11:43:52;;;;;;;7.40;3.17;;;21.40;69.50;;;;;;5076358;28;20603;-62
2023/06/15 11:46:22;;;;;;;6.03;3.20;;;21.30;68.10;;;;;;5069924;28;20040;-61
2023/06/15 11:48:49;;;;;;;9.77;2.72;;;21.40;70.50;;;;;;5063530;28;20040;-60
2023/06/15 11:51:16;;;;;;;6.15;3.33;;;21.50;67.60;;;;;;5074725;28;20118;-59
2023/06/15 11:53:43;;;;;;;11.73;2.95;;;21.40;67.20;;;;;;5081624;28;20047;-61
2023/06/15 11:56:16;;;;;;;7.75;2.88;;;21.40;69.40;;;;;;5070311;28;20040;-61
2023/06/15 11:58:47;;;;;;;5.95;2.60;;;21.50;64.40;;;;;;5054754;28;20455;-60
2023/06/15 12:01:14;;;;;;;7.60;2.80;;;21.40;66.40;;;;;;5069557;28;20064;-61
2023/06/15 12:03:51;;;;;;;6.35;2.78;;;21.10;64.30;;;;;;5082096;28;20105;-61
2023/06/15 12:06:18;;;;;;;6.15;2.72;;;21.10;67.10;;;;;;5070039;28;20784;-61
2023/06/15 12:08:45;;;;;;;6.90;3.35;;;21.00;63.10;;;;;;5066611;28;20051;-62
2023/06/15 12:11:11;;;;;;;5.53;2.85;;;20.90;69.00;;;;;;5071134;28;20051;-61
2023/06/15 12:13:38;;;;;;;10.95;3.08;;;;;;;;;;5068616;28;20044;-61
2023/06/15 12:16:04;;;;;;;10.60;2.80;;;;;;;;;;5072737;28;20044;-62
2023/06/15 12:18:30;;;;;;;4.65;2.50;;;;;;;;;;5085994;28;20064;-62
2023/06/15 12:20:56;;;;;;;9.60;2.60;;;;;;;;;;5076634;28;20861;-62
2023/06/15 12:23:28;;;;;;;6.38;2.70;;;;;;;;;;5086072;28;20506;-62
2023/06/15 12:25:56;;;;;;;3.95;2.53;;;;;;;;;;5073234;28;20040;-62
2023/06/15 12:28:23;;;;;;;6.05;3.15;;;;;;;;;;5062992;28;20036;-62
2023/06/15 12:30:49;;;;;;;8.30;2.83;;;;;;;;;;5069134;28;20086;-61
2023/06/15 12:33:29;;;;;;;4.15;2.70;;;;;;;;;;5078905;28;20031;-61
2023/06/15 12:35:56;;;;;;;8.15;2.60;;;;;;;;;;5072390;28;20036;-60
2023/06/15 12:38:25;;;;;;;11.68;2.80;;;;;;;;;;5069065;28;20032;-60
2023/06/15 12:40:52;;;;;;;6.97;2.83;;;;;;;;;;5067958;28;20036;-61
2023/06/15 12:43:19;;;;;;;10.93;3.58;;;;;;;;;;5071338;28;20044;-60
2023/06/15 12:45:46;;;;;;;5.18;2.80;;;;;;;;;;5071056;28;20043;-60
2023/06/15 12:48:12;;;;;;;10.20;3.30;;;;;;;;;;5071224;28;20031;-60
2023/06/15 12:50:38;;;;;;;6.05;2.67;;;;;;;;;;5072456;28;20032;-61
2023/06/15 12:53:05;;;;;;;7.10;2.75;;;;;;;;;;5074299;28;20077;-62
2023/06/15 12:55:31;;;;;;;7.90;2.75;;;;;;;;;;5067987;28;20508;-61
2023/06/15 12:57:57;;;;;;;6.65;2.63;;;;;;;;;;5070918;28;20120;-61
2023/06/15 13:00:25;;;;;;;10.98;2.97;;;;;;;;;;5062792;28;20083;-62
2023/06/15 13:02:51;;;;;;;8.77;3.28;;;;;;;;;;5071402;28;20028;-62
2023/06/15 13:05:18;;;;;;;6.63;2.40;;;;;;;;;;5075398;28;20142;-61
2023/06/15 13:07:46;;;;;;;7.70;3.40;;;;;;;;;;5098483;28;20122;-61